sensor_id;sensor_type;location;lat;lon;timestamp;temperature;humidity
46137;DHT22;31871;49.418;8.752;2022-09-17T00:01:36;12.40;99.90
46137;DHT22;31871;49.418;8.752;2022-09-17T00:04:02;12.40;99.90
46137;DHT22;31871;49.418;8.752;2022-09-17T00:06:30;12.40;99.90
46137;DHT22;31871;49.418;8.752;2022-09-17T00:08:56;12.30;99.90
46137;DHT22;31871;49.418;8.752;2022-09-17T00:11:28;12.40;99.90
46137;DHT22;31871;49.418;8.752;2022-09-17T00:13:56;12.20;99.90
46137;DHT22;31871;49.418;8.752;2022-09-17T00:16:28;12.20;99.90
46137;DHT22;31871;49.418;8.752;2022-09-17T00:18:55;12.30;99.90
46137;DHT22;31871;49.418;8.752;2022-09-17T00:21:22;12.30;99.90
46137;DHT22;31871;49.418;8.752;2022-09-17T00:23:51;12.20;99.90
46137;DHT22;31871;49.418;8.752;2022-09-17T00:26:17;12.30;99.90
46137;DHT22;31871;49.418;8.752;2022-09-17T00:28:42;12.30;99.90
46137;DHT22;31871;49.418;8.752;2022-09-17T00:31:12;12.20;99.90
46137;DHT22;31871;49.418;8.752;2022-09-17T00:33:38;12.00;99.90
46137;DHT22;31871;49.418;8.752;2022-09-17T00:36:04;12.00;99.90
46137;DHT22;31871;49.418;8.752;2022-09-17T00:38:30;12.00;99.90
46137;DHT22;31871;49.418;8.752;2022-09-17T00:40:55;12.00;99.90
46137;DHT22;31871;49.418;8.752;2022-09-17T00:43:52;12.00;99.90
46137;DHT22;31871;49.418;8.752;2022-09-17T00:46:31;11.90;99.90
46137;DHT22;31871;49.418;8.752;2022-09-17T00:49:02;12.00;99.90
46137;DHT22;31871;49.418;8.752;2022-09-17T00:51:34;12.10;99.90
46137;DHT22;31871;49.418;8.752;2022-09-17T00:54:03;12.20;99.90
46137;DHT22;31871;49.418;8.752;2022-09-17T00:56:33;12.10;99.90
46137;DHT22;31871;49.418;8.752;2022-09-17T00:59:00;12.10;99.90
46137;DHT22;31871;49.418;8.752;2022-09-17T01:01:26;12.00;99.90
46137;DHT22;31871;49.418;8.752;2022-09-17T01:03:52;11.90;99.90
46137;DHT22;31871;49.418;8.752;2022-09-17T01:06:41;11.90;99.90
46137;DHT22;31871;49.418;8.752;2022-09-17T01:09:50;11.90;99.90
46137;DHT22;31871;49.418;8.752;2022-09-17T01:18:06;12.00;99.90
46137;DHT22;31871;49.418;8.752;2022-09-17T01:32:57;11.90;99.90
46137;DHT22;31871;49.418;8.752;2022-09-17T01:35:30;12.00;99.90
46137;DHT22;31871;49.418;8.752;2022-09-17T01:38:14;12.00;99.90
46137;DHT22;31871;49.418;8.752;2022-09-17T01:41:01;12.00;99.90
46137;DHT22;31871;49.418;8.752;2022-09-17T01:43:54;11.80;99.90
46137;DHT22;31871;49.418;8.752;2022-09-17T01:46:39;11.70;99.90
46137;DHT22;31871;49.418;8.752;2022-09-17T01:49:08;11.70;99.90
46137;DHT22;31871;49.418;8.752;2022-09-17T01:51:40;11.80;99.90
46137;DHT22;31871;49.418;8.752;2022-09-17T01:54:19;11.80;99.90
46137;DHT22;31871;49.418;8.752;2022-09-17T01:56:54;11.90;99.90
46137;DHT22;31871;49.418;8.752;2022-09-17T01:59:25;11.80;99.90
46137;DHT22;31871;49.418;8.752;2022-09-17T02:01:55;11.70;99.90
46137;DHT22;31871;49.418;8.752;2022-09-17T02:04:27;11.70;99.90
46137;DHT22;31871;49.418;8.752;2022-09-17T02:07:01;11.70;99.90
46137;DHT22;31871;49.418;8.752;2022-09-17T02:09:31;11.70;99.90
46137;DHT22;31871;49.418;8.752;2022-09-17T02:12:00;11.70;99.90
46137;DHT22;31871;49.418;8.752;2022-09-17T02:14:39;11.70;99.90
46137;DHT22;31871;49.418;8.752;2022-09-17T02:17:15;11.50;99.90
46137;DHT22;31871;49.418;8.752;2022-09-17T02:19:45;11.30;99.90
46137;DHT22;31871;49.418;8.752;2022-09-17T02:22:29;11.30;99.90
46137;DHT22;31871;49.418;8.752;2022-09-17T02:30:12;11.40;99.90
46137;DHT22;31871;49.418;8.752;2022-09-17T02:32:38;11.40;99.90
46137;DHT22;31871;49.418;8.752;2022-09-17T02:35:04;11.30;99.90
46137;DHT22;31871;49.418;8.752;2022-09-17T02:37:31;11.30;99.90
46137;DHT22;31871;49.418;8.752;2022-09-17T02:39:56;11.40;99.90
46137;DHT22;31871;49.418;8.752;2022-09-17T02:42:35;11.40;99.90
46137;DHT22;31871;49.418;8.752;2022-09-17T02:53:30;11.50;99.90
46137;DHT22;31871;49.418;8.752;2022-09-17T02:56:32;11.50;99.90
46137;DHT22;31871;49.418;8.752;2022-09-17T03:02:00;11.40;99.90
46137;DHT22;31871;49.418;8.752;2022-09-17T03:04:27;11.40;99.90
46137;DHT22;31871;49.418;8.752;2022-09-17T03:06:54;11.40;99.90
46137;DHT22;31871;49.418;8.752;2022-09-17T03:09:20;11.50;99.90
46137;DHT22;31871;49.418;8.752;2022-09-17T03:11:46;11.50;99.90
46137;DHT22;31871;49.418;8.752;2022-09-17T03:14:12;11.40;99.90
46137;DHT22;31871;49.418;8.752;2022-09-17T03:16:37;11.30;99.90
46137;DHT22;31871;49.418;8.752;2022-09-17T03:19:03;11.30;99.90
46137;DHT22;31871;49.418;8.752;2022-09-17T03:21:29;11.20;99.90
46137;DHT22;31871;49.418;8.752;2022-09-17T03:23:55;11.10;99.90
46137;DHT22;31871;49.418;8.752;2022-09-17T03:26:21;11.00;99.90
46137;DHT22;31871;49.418;8.752;2022-09-17T03:28:46;11.00;99.90
46137;DHT22;31871;49.418;8.752;2022-09-17T03:31:12;10.90;99.90
46137;DHT22;31871;49.418;8.752;2022-09-17T03:33:37;10.90;99.90
46137;DHT22;31871;49.418;8.752;2022-09-17T03:36:03;10.90;99.90
46137;DHT22;31871;49.418;8.752;2022-09-17T03:38:28;11.00;99.90
46137;DHT22;31871;49.418;8.752;2022-09-17T03:41:02;11.00;99.90
46137;DHT22;31871;49.418;8.752;2022-09-17T03:43:28;11.00;99.90
46137;DHT22;31871;49.418;8.752;2022-09-17T03:45:54;11.10;99.90
46137;DHT22;31871;49.418;8.752;2022-09-17T03:48:20;11.00;99.90
46137;DHT22;31871;49.418;8.752;2022-09-17T03:50:46;10.90;99.90
46137;DHT22;31871;49.418;8.752;2022-09-17T03:53:11;11.00;99.90
46137;DHT22;31871;49.418;8.752;2022-09-17T03:55:37;10.90;99.90
46137;DHT22;31871;49.418;8.752;2022-09-17T03:58:03;11.00;99.90
46137;DHT22;31871;49.418;8.752;2022-09-17T04:00:29;11.00;99.90
46137;DHT22;31871;49.418;8.752;2022-09-17T04:02:54;11.00;99.90
46137;DHT22;31871;49.418;8.752;2022-09-17T04:05:20;11.00;99.90
46137;DHT22;31871;49.418;8.752;2022-09-17T04:07:45;11.00;99.90
46137;DHT22;31871;49.418;8.752;2022-09-17T04:10:11;11.00;99.90
46137;DHT22;31871;49.418;8.752;2022-09-17T04:12:37;10.90;99.90
46137;DHT22;31871;49.418;8.752;2022-09-17T04:15:03;10.90;99.90
46137;DHT22;31871;49.418;8.752;2022-09-17T04:17:29;10.90;99.90
46137;DHT22;31871;49.418;8.752;2022-09-17T04:22:21;11.30;99.90
46137;DHT22;31871;49.418;8.752;2022-09-17T04:24:46;11.20;99.90
46137;DHT22;31871;49.418;8.752;2022-09-17T04:27:12;11.30;99.90
46137;DHT22;31871;49.418;8.752;2022-09-17T04:29:37;11.40;99.90
46137;DHT22;31871;49.418;8.752;2022-09-17T04:32:03;11.40;99.90
46137;DHT22;31871;49.418;8.752;2022-09-17T04:34:28;11.40;99.90
46137;DHT22;31871;49.418;8.752;2022-09-17T04:36:56;11.40;99.90
46137;DHT22;31871;49.418;8.752;2022-09-17T04:39:21;11.30;99.90
46137;DHT22;31871;49.418;8.752;2022-09-17T04:41:47;11.40;99.90
46137;DHT22;31871;49.418;8.752;2022-09-17T04:44:12;11.50;99.90
46137;DHT22;31871;49.418;8.752;2022-09-17T04:46:38;11.50;99.90
46137;DHT22;31871;49.418;8.752;2022-09-17T04:49:04;11.50;99.90
46137;DHT22;31871;49.418;8.752;2022-09-17T04:51:29;11.50;99.90
46137;DHT22;31871;49.418;8.752;2022-09-17T04:53:55;11.50;99.90
46137;DHT22;31871;49.418;8.752;2022-09-17T04:56:20;11.40;99.90
46137;DHT22;31871;49.418;8.752;2022-09-17T04:58:46;11.20;99.90
46137;DHT22;31871;49.418;8.752;2022-09-17T05:01:11;11.20;99.90
46137;DHT22;31871;49.418;8.752;2022-09-17T05:03:38;11.20;99.90
46137;DHT22;31871;49.418;8.752;2022-09-17T05:06:04;11.20;99.90
46137;DHT22;31871;49.418;8.752;2022-09-17T05:08:29;11.10;99.90
46137;DHT22;31871;49.418;8.752;2022-09-17T05:10:55;11.20;99.90
46137;DHT22;31871;49.418;8.752;2022-09-17T05:13:21;11.20;99.90
46137;DHT22;31871;49.418;8.752;2022-09-17T05:15:46;11.30;99.90
46137;DHT22;31871;49.418;8.752;2022-09-17T05:18:14;11.20;99.90
46137;DHT22;31871;49.418;8.752;2022-09-17T05:20:42;11.10;99.90
46137;DHT22;31871;49.418;8.752;2022-09-17T05:23:10;11.00;99.90
46137;DHT22;31871;49.418;8.752;2022-09-17T05:25:35;10.80;99.90
46137;DHT22;31871;49.418;8.752;2022-09-17T05:28:01;10.80;99.90
46137;DHT22;31871;49.418;8.752;2022-09-17T05:30:26;10.90;99.90
46137;DHT22;31871;49.418;8.752;2022-09-17T05:33:03;11.00;99.90
46137;DHT22;31871;49.418;8.752;2022-09-17T05:35:30;11.00;99.90
46137;DHT22;31871;49.418;8.752;2022-09-17T05:38:00;10.90;99.90
46137;DHT22;31871;49.418;8.752;2022-09-17T05:40:26;11.00;99.90
46137;DHT22;31871;49.418;8.752;2022-09-17T05:42:57;11.00;99.90
46137;DHT22;31871;49.418;8.752;2022-09-17T05:45:23;11.00;99.90
46137;DHT22;31871;49.418;8.752;2022-09-17T05:47:56;11.00;99.90
46137;DHT22;31871;49.418;8.752;2022-09-17T05:50:22;10.90;99.90
46137;DHT22;31871;49.418;8.752;2022-09-17T05:52:49;10.90;99.90
46137;DHT22;31871;49.418;8.752;2022-09-17T05:55:15;10.80;99.90
46137;DHT22;31871;49.418;8.752;2022-09-17T05:57:40;10.80;99.90
46137;DHT22;31871;49.418;8.752;2022-09-17T06:00:06;10.90;99.90
46137;DHT22;31871;49.418;8.752;2022-09-17T06:02:32;10.90;99.90
46137;DHT22;31871;49.418;8.752;2022-09-17T06:04:57;10.90;99.90
46137;DHT22;31871;49.418;8.752;2022-09-17T06:07:26;11.10;99.90
46137;DHT22;31871;49.418;8.752;2022-09-17T06:09:52;11.00;99.90
46137;DHT22;31871;49.418;8.752;2022-09-17T06:12:17;11.10;99.90
46137;DHT22;31871;49.418;8.752;2022-09-17T06:14:43;11.10;99.90
46137;DHT22;31871;49.418;8.752;2022-09-17T06:17:08;11.00;99.90
46137;DHT22;31871;49.418;8.752;2022-09-17T06:19:34;11.10;99.90
46137;DHT22;31871;49.418;8.752;2022-09-17T06:21:59;10.90;99.90
46137;DHT22;31871;49.418;8.752;2022-09-17T06:24:25;10.90;99.90
46137;DHT22;31871;49.418;8.752;2022-09-17T06:26:51;11.00;99.90
46137;DHT22;31871;49.418;8.752;2022-09-17T06:29:16;11.10;99.90
46137;DHT22;31871;49.418;8.752;2022-09-17T06:31:42;11.10;99.90
46137;DHT22;31871;49.418;8.752;2022-09-17T06:34:11;11.00;99.90
46137;DHT22;31871;49.418;8.752;2022-09-17T06:36:36;11.10;99.90
46137;DHT22;31871;49.418;8.752;2022-09-17T06:39:02;11.00;99.90
46137;DHT22;31871;49.418;8.752;2022-09-17T06:41:28;11.10;99.90
46137;DHT22;31871;49.418;8.752;2022-09-17T06:43:53;10.90;99.90
46137;DHT22;31871;49.418;8.752;2022-09-17T06:46:19;11.00;99.90
46137;DHT22;31871;49.418;8.752;2022-09-17T06:48:44;11.00;99.90
46137;DHT22;31871;49.418;8.752;2022-09-17T06:51:10;11.00;99.90
46137;DHT22;31871;49.418;8.752;2022-09-17T06:53:37;11.00;99.90
46137;DHT22;31871;49.418;8.752;2022-09-17T06:56:04;11.20;99.90
46137;DHT22;31871;49.418;8.752;2022-09-17T06:58:29;11.10;99.90
46137;DHT22;31871;49.418;8.752;2022-09-17T07:00:59;11.10;99.90
46137;DHT22;31871;49.418;8.752;2022-09-17T07:03:29;11.20;99.90
46137;DHT22;31871;49.418;8.752;2022-09-17T07:05:55;11.20;99.90
46137;DHT22;31871;49.418;8.752;2022-09-17T07:08:20;11.30;99.90
46137;DHT22;31871;49.418;8.752;2022-09-17T07:10:46;11.30;99.90
46137;DHT22;31871;49.418;8.752;2022-09-17T07:13:11;11.40;99.90
46137;DHT22;31871;49.418;8.752;2022-09-17T07:15:37;11.40;99.90
46137;DHT22;31871;49.418;8.752;2022-09-17T07:18:09;11.50;99.90
46137;DHT22;31871;49.418;8.752;2022-09-17T07:20:36;11.40;99.90
46137;DHT22;31871;49.418;8.752;2022-09-17T07:23:02;11.40;99.90
46137;DHT22;31871;49.418;8.752;2022-09-17T07:25:28;11.40;99.90
46137;DHT22;31871;49.418;8.752;2022-09-17T07:27:53;11.40;99.90
46137;DHT22;31871;49.418;8.752;2022-09-17T07:30:20;11.40;99.90
46137;DHT22;31871;49.418;8.752;2022-09-17T07:32:45;11.40;99.90
46137;DHT22;31871;49.418;8.752;2022-09-17T07:35:11;11.40;99.90
46137;DHT22;31871;49.418;8.752;2022-09-17T07:37:37;11.50;99.90
46137;DHT22;31871;49.418;8.752;2022-09-17T07:40:03;11.30;99.90
46137;DHT22;31871;49.418;8.752;2022-09-17T07:42:31;11.40;99.90
46137;DHT22;31871;49.418;8.752;2022-09-17T07:44:57;11.40;99.90
46137;DHT22;31871;49.418;8.752;2022-09-17T07:47:23;11.40;99.90
46137;DHT22;31871;49.418;8.752;2022-09-17T07:49:48;11.40;99.90
46137;DHT22;31871;49.418;8.752;2022-09-17T07:52:14;11.60;99.90
46137;DHT22;31871;49.418;8.752;2022-09-17T07:54:39;11.50;99.90
46137;DHT22;31871;49.418;8.752;2022-09-17T07:57:05;11.60;99.90
46137;DHT22;31871;49.418;8.752;2022-09-17T07:59:30;11.60;99.90
46137;DHT22;31871;49.418;8.752;2022-09-17T08:01:56;11.70;99.90
46137;DHT22;31871;49.418;8.752;2022-09-17T08:04:22;11.60;99.90
46137;DHT22;31871;49.418;8.752;2022-09-17T08:06:47;11.60;99.90
46137;DHT22;31871;49.418;8.752;2022-09-17T08:09:14;11.60;99.90
46137;DHT22;31871;49.418;8.752;2022-09-17T08:11:40;11.70;99.90
46137;DHT22;31871;49.418;8.752;2022-09-17T08:14:08;11.50;99.90
46137;DHT22;31871;49.418;8.752;2022-09-17T08:16:34;11.50;99.90
46137;DHT22;31871;49.418;8.752;2022-09-17T08:19:00;11.60;99.90
46137;DHT22;31871;49.418;8.752;2022-09-17T08:21:25;11.60;99.90
46137;DHT22;31871;49.418;8.752;2022-09-17T08:23:51;11.70;99.90
46137;DHT22;31871;49.418;8.752;2022-09-17T08:26:21;11.60;99.90
46137;DHT22;31871;49.418;8.752;2022-09-17T08:28:49;11.60;99.90
46137;DHT22;31871;49.418;8.752;2022-09-17T08:31:17;11.50;99.90
46137;DHT22;31871;49.418;8.752;2022-09-17T08:33:43;11.40;99.90
46137;DHT22;31871;49.418;8.752;2022-09-17T08:36:11;11.50;99.90
46137;DHT22;31871;49.418;8.752;2022-09-17T08:38:37;11.50;99.90
46137;DHT22;31871;49.418;8.752;2022-09-17T08:41:11;11.50;99.90
46137;DHT22;31871;49.418;8.752;2022-09-17T08:43:57;11.60;99.90
46137;DHT22;31871;49.418;8.752;2022-09-17T08:46:27;11.60;99.90
46137;DHT22;31871;49.418;8.752;2022-09-17T08:49:04;11.70;99.90
46137;DHT22;31871;49.418;8.752;2022-09-17T08:51:55;11.80;99.90
46137;DHT22;31871;49.418;8.752;2022-09-17T08:57:13;12.20;99.90
46137;DHT22;31871;49.418;8.752;2022-09-17T09:02:23;12.70;99.90
46137;DHT22;31871;49.418;8.752;2022-09-17T09:05:09;12.90;99.90
46137;DHT22;31871;49.418;8.752;2022-09-17T09:07:41;13.20;99.90
46137;DHT22;31871;49.418;8.752;2022-09-17T09:12:42;13.90;99.90
46137;DHT22;31871;49.418;8.752;2022-09-17T09:15:31;13.70;99.90
46137;DHT22;31871;49.418;8.752;2022-09-17T09:18:08;13.40;99.90
46137;DHT22;31871;49.418;8.752;2022-09-17T09:23:54;13.20;99.90
46137;DHT22;31871;49.418;8.752;2022-09-17T09:29:04;13.10;99.90
46137;DHT22;31871;49.418;8.752;2022-09-17T09:34:11;12.80;99.90
46137;DHT22;31871;49.418;8.752;2022-09-17T09:36:37;12.90;99.90
46137;DHT22;31871;49.418;8.752;2022-09-17T09:41:50;12.80;99.90
46137;DHT22;31871;49.418;8.752;2022-09-17T09:44:18;12.80;99.90
46137;DHT22;31871;49.418;8.752;2022-09-17T09:55:35;12.60;99.90
46137;DHT22;31871;49.418;8.752;2022-09-17T10:00:44;12.50;99.90
46137;DHT22;31871;49.418;8.752;2022-09-17T10:05:35;13.00;99.90
46137;DHT22;31871;49.418;8.752;2022-09-17T10:08:10;13.10;99.90
46137;DHT22;31871;49.418;8.752;2022-09-17T10:11:02;13.10;99.90
46137;DHT22;31871;49.418;8.752;2022-09-17T10:13:31;13.00;99.90
46137;DHT22;31871;49.418;8.752;2022-09-17T10:16:24;13.20;99.90
46137;DHT22;31871;49.418;8.752;2022-09-17T10:19:15;13.40;99.90
46137;DHT22;31871;49.418;8.752;2022-09-17T10:21:43;13.50;99.90
46137;DHT22;31871;49.418;8.752;2022-09-17T10:24:26;13.50;99.90
46137;DHT22;31871;49.418;8.752;2022-09-17T10:27:05;13.70;99.90
46137;DHT22;31871;49.418;8.752;2022-09-17T10:29:32;13.60;99.90
46137;DHT22;31871;49.418;8.752;2022-09-17T10:31:58;13.50;99.90
46137;DHT22;31871;49.418;8.752;2022-09-17T10:34:29;13.80;99.90
46137;DHT22;31871;49.418;8.752;2022-09-17T10:36:56;13.90;99.90
46137;DHT22;31871;49.418;8.752;2022-09-17T10:44:49;13.80;99.90
46137;DHT22;31871;49.418;8.752;2022-09-17T10:47:30;13.60;99.90
46137;DHT22;31871;49.418;8.752;2022-09-17T10:49:57;13.50;99.90
46137;DHT22;31871;49.418;8.752;2022-09-17T10:52:35;13.30;99.90
46137;DHT22;31871;49.418;8.752;2022-09-17T11:00:33;13.80;99.90
46137;DHT22;31871;49.418;8.752;2022-09-17T11:03:37;14.10;99.90
46137;DHT22;31871;49.418;8.752;2022-09-17T11:09:04;14.30;99.90
46137;DHT22;31871;49.418;8.752;2022-09-17T11:15:00;14.40;99.90
46137;DHT22;31871;49.418;8.752;2022-09-17T11:20:23;14.50;99.90
46137;DHT22;31871;49.418;8.752;2022-09-17T11:29:09;14.40;99.90
46137;DHT22;31871;49.418;8.752;2022-09-17T11:32:10;14.30;99.90
46137;DHT22;31871;49.418;8.752;2022-09-17T11:34:46;14.20;99.90
46137;DHT22;31871;49.418;8.752;2022-09-17T11:37:25;14.10;99.90
46137;DHT22;31871;49.418;8.752;2022-09-17T11:40:02;13.90;99.90
46137;DHT22;31871;49.418;8.752;2022-09-17T11:42:44;13.80;99.90
46137;DHT22;31871;49.418;8.752;2022-09-17T11:45:35;13.80;99.90
46137;DHT22;31871;49.418;8.752;2022-09-17T11:48:12;13.80;99.90
46137;DHT22;31871;49.418;8.752;2022-09-17T11:50:48;13.80;99.90
46137;DHT22;31871;49.418;8.752;2022-09-17T11:59:01;13.40;99.90
46137;DHT22;31871;49.418;8.752;2022-09-17T12:01:39;13.30;99.90
46137;DHT22;31871;49.418;8.752;2022-09-17T12:04:30;13.30;99.90
46137;DHT22;31871;49.418;8.752;2022-09-17T12:07:10;13.50;99.90
46137;DHT22;31871;49.418;8.752;2022-09-17T12:09:39;13.50;99.90
46137;DHT22;31871;49.418;8.752;2022-09-17T12:12:17;13.60;99.90
46137;DHT22;31871;49.418;8.752;2022-09-17T12:15:27;13.80;99.90
46137;DHT22;31871;49.418;8.752;2022-09-17T12:20:39;14.20;99.90
46137;DHT22;31871;49.418;8.752;2022-09-17T12:23:14;14.40;99.90
46137;DHT22;31871;49.418;8.752;2022-09-17T12:25:55;14.50;99.90
46137;DHT22;31871;49.418;8.752;2022-09-17T12:28:35;14.60;99.90
46137;DHT22;31871;49.418;8.752;2022-09-17T12:31:16;14.60;99.90
46137;DHT22;31871;49.418;8.752;2022-09-17T12:34:00;14.50;99.90
46137;DHT22;31871;49.418;8.752;2022-09-17T12:39:18;14.80;99.90
46137;DHT22;31871;49.418;8.752;2022-09-17T12:44:55;15.10;99.90
46137;DHT22;31871;49.418;8.752;2022-09-17T12:53:06;16.60;99.90
46137;DHT22;31871;49.418;8.752;2022-09-17T12:58:42;16.90;99.90
46137;DHT22;31871;49.418;8.752;2022-09-17T13:01:32;16.80;99.90
46137;DHT22;31871;49.418;8.752;2022-09-17T13:12:07;16.40;99.90
46137;DHT22;31871;49.418;8.752;2022-09-17T13:15:00;15.70;99.90
46137;DHT22;31871;49.418;8.752;2022-09-17T13:17:30;15.50;99.90
46137;DHT22;31871;49.418;8.752;2022-09-17T13:20:10;15.40;99.90
46137;DHT22;31871;49.418;8.752;2022-09-17T13:22:48;15.70;99.90
46137;DHT22;31871;49.418;8.752;2022-09-17T13:25:16;15.90;99.90
46137;DHT22;31871;49.418;8.752;2022-09-17T13:27:43;16.00;99.90
46137;DHT22;31871;49.418;8.752;2022-09-17T13:30:10;16.10;99.90
46137;DHT22;31871;49.418;8.752;2022-09-17T13:37:41;15.90;99.90
46137;DHT22;31871;49.418;8.752;2022-09-17T13:40:25;15.80;99.90
46137;DHT22;31871;49.418;8.752;2022-09-17T13:45:32;15.80;99.90
46137;DHT22;31871;49.418;8.752;2022-09-17T13:48:07;15.80;99.90
46137;DHT22;31871;49.418;8.752;2022-09-17T13:50:36;15.90;99.90
46137;DHT22;31871;49.418;8.752;2022-09-17T13:58:05;15.80;99.90
46137;DHT22;31871;49.418;8.752;2022-09-17T14:01:54;16.00;99.90
46137;DHT22;31871;49.418;8.752;2022-09-17T14:03:45;15.90;99.90
46137;DHT22;31871;49.418;8.752;2022-09-17T14:13:47;16.10;99.90
46137;DHT22;31871;49.418;8.752;2022-09-17T14:30:32;16.00;99.90
46137;DHT22;31871;49.418;8.752;2022-09-17T14:33:14;16.10;99.90
46137;DHT22;31871;49.418;8.752;2022-09-17T14:35:42;15.90;99.90
46137;DHT22;31871;49.418;8.752;2022-09-17T14:38:23;15.90;99.90
46137;DHT22;31871;49.418;8.752;2022-09-17T14:41:14;16.10;99.90
46137;DHT22;31871;49.418;8.752;2022-09-17T14:44:01;16.20;99.90
46137;DHT22;31871;49.418;8.752;2022-09-17T14:46:33;16.10;99.90
46137;DHT22;31871;49.418;8.752;2022-09-17T14:51:45;16.10;99.90
46137;DHT22;31871;49.418;8.752;2022-09-17T14:54:20;16.00;99.90
46137;DHT22;31871;49.418;8.752;2022-09-17T15:01:50;16.30;99.90
46137;DHT22;31871;49.418;8.752;2022-09-17T15:04:20;16.40;99.90
46137;DHT22;31871;49.418;8.752;2022-09-17T15:06:46;16.40;99.90
46137;DHT22;31871;49.418;8.752;2022-09-17T15:09:37;16.50;99.90
46137;DHT22;31871;49.418;8.752;2022-09-17T15:12:04;16.40;99.90
46137;DHT22;31871;49.418;8.752;2022-09-17T15:14:37;16.30;99.90
46137;DHT22;31871;49.418;8.752;2022-09-17T15:17:05;16.20;99.90
46137;DHT22;31871;49.418;8.752;2022-09-17T15:21:59;16.20;99.90
46137;DHT22;31871;49.418;8.752;2022-09-17T15:27:44;15.90;99.90
46137;DHT22;31871;49.418;8.752;2022-09-17T15:30:17;15.80;99.90
46137;DHT22;31871;49.418;8.752;2022-09-17T15:32:55;15.70;99.90
46137;DHT22;31871;49.418;8.752;2022-09-17T15:35:32;15.80;99.90
46137;DHT22;31871;49.418;8.752;2022-09-17T15:38:00;15.70;99.90
46137;DHT22;31871;49.418;8.752;2022-09-17T15:40:34;15.80;99.90
46137;DHT22;31871;49.418;8.752;2022-09-17T15:48:46;15.60;99.90
46137;DHT22;31871;49.418;8.752;2022-09-17T15:51:33;15.60;99.90
46137;DHT22;31871;49.418;8.752;2022-09-17T15:54:01;15.50;99.90
46137;DHT22;31871;49.418;8.752;2022-09-17T15:56:31;15.50;99.90
46137;DHT22;31871;49.418;8.752;2022-09-17T15:59:03;15.40;99.90
46137;DHT22;31871;49.418;8.752;2022-09-17T16:01:50;15.40;99.90
46137;DHT22;31871;49.418;8.752;2022-09-17T16:04:20;15.40;99.90
46137;DHT22;31871;49.418;8.752;2022-09-17T16:09:49;15.60;99.90
46137;DHT22;31871;49.418;8.752;2022-09-17T16:12:21;15.50;99.90
46137;DHT22;31871;49.418;8.752;2022-09-17T16:14:53;15.50;99.90
46137;DHT22;31871;49.418;8.752;2022-09-17T16:19:55;15.30;99.90
46137;DHT22;31871;49.418;8.752;2022-09-17T16:22:21;15.40;99.90
46137;DHT22;31871;49.418;8.752;2022-09-17T16:24:47;15.40;99.90
46137;DHT22;31871;49.418;8.752;2022-09-17T16:27:25;15.30;99.90
46137;DHT22;31871;49.418;8.752;2022-09-17T16:30:04;15.10;99.90
46137;DHT22;31871;49.418;8.752;2022-09-17T16:32:30;15.20;99.90
46137;DHT22;31871;49.418;8.752;2022-09-17T16:34:55;15.20;99.90
46137;DHT22;31871;49.418;8.752;2022-09-17T16:37:21;15.30;99.90
46137;DHT22;31871;49.418;8.752;2022-09-17T16:39:47;15.20;99.90
46137;DHT22;31871;49.418;8.752;2022-09-17T16:42:13;15.10;99.90
46137;DHT22;31871;49.418;8.752;2022-09-17T16:44:38;15.20;99.90
46137;DHT22;31871;49.418;8.752;2022-09-17T16:47:04;15.10;99.90
46137;DHT22;31871;49.418;8.752;2022-09-17T16:49:30;15.00;99.90
46137;DHT22;31871;49.418;8.752;2022-09-17T16:51:56;14.80;99.90
46137;DHT22;31871;49.418;8.752;2022-09-17T16:54:21;14.60;99.90
46137;DHT22;31871;49.418;8.752;2022-09-17T16:56:47;14.30;99.90
46137;DHT22;31871;49.418;8.752;2022-09-17T16:59:13;13.90;99.90
46137;DHT22;31871;49.418;8.752;2022-09-17T17:01:38;13.70;99.90
46137;DHT22;31871;49.418;8.752;2022-09-17T17:04:04;13.90;99.90
46137;DHT22;31871;49.418;8.752;2022-09-17T17:06:30;13.90;99.90
46137;DHT22;31871;49.418;8.752;2022-09-17T17:08:56;14.00;99.90
46137;DHT22;31871;49.418;8.752;2022-09-17T17:11:25;13.90;99.90
46137;DHT22;31871;49.418;8.752;2022-09-17T17:13:52;13.80;99.90
46137;DHT22;31871;49.418;8.752;2022-09-17T17:16:20;13.60;99.90
46137;DHT22;31871;49.418;8.752;2022-09-17T17:18:46;13.40;99.90
46137;DHT22;31871;49.418;8.752;2022-09-17T17:21:13;13.40;99.90
46137;DHT22;31871;49.418;8.752;2022-09-17T17:23:39;13.10;99.90
46137;DHT22;31871;49.418;8.752;2022-09-17T17:26:08;12.90;99.90
46137;DHT22;31871;49.418;8.752;2022-09-17T17:28:34;13.00;99.90
46137;DHT22;31871;49.418;8.752;2022-09-17T17:31:01;13.20;99.90
46137;DHT22;31871;49.418;8.752;2022-09-17T17:33:27;13.20;99.90
46137;DHT22;31871;49.418;8.752;2022-09-17T17:35:53;13.10;99.90
46137;DHT22;31871;49.418;8.752;2022-09-17T17:38:19;13.30;99.90
46137;DHT22;31871;49.418;8.752;2022-09-17T17:40:47;13.20;99.90
46137;DHT22;31871;49.418;8.752;2022-09-17T17:43:13;13.10;99.90
46137;DHT22;31871;49.418;8.752;2022-09-17T17:45:38;13.00;99.90
46137;DHT22;31871;49.418;8.752;2022-09-17T17:48:04;12.80;99.90
46137;DHT22;31871;49.418;8.752;2022-09-17T17:50:31;12.60;99.90
46137;DHT22;31871;49.418;8.752;2022-09-17T17:52:56;12.60;99.90
46137;DHT22;31871;49.418;8.752;2022-09-17T17:55:22;12.50;99.90
46137;DHT22;31871;49.418;8.752;2022-09-17T17:57:56;12.50;99.90
46137;DHT22;31871;49.418;8.752;2022-09-17T18:00:23;12.20;99.90
46137;DHT22;31871;49.418;8.752;2022-09-17T18:02:49;12.20;99.90
46137;DHT22;31871;49.418;8.752;2022-09-17T18:05:15;12.20;99.90
46137;DHT22;31871;49.418;8.752;2022-09-17T18:07:40;12.20;99.90
46137;DHT22;31871;49.418;8.752;2022-09-17T18:10:06;12.20;99.90
46137;DHT22;31871;49.418;8.752;2022-09-17T18:12:32;12.10;99.90
46137;DHT22;31871;49.418;8.752;2022-09-17T18:14:57;12.00;99.90
46137;DHT22;31871;49.418;8.752;2022-09-17T18:17:23;11.90;99.90
46137;DHT22;31871;49.418;8.752;2022-09-17T18:19:48;12.00;99.90
46137;DHT22;31871;49.418;8.752;2022-09-17T18:22:15;12.10;99.90
46137;DHT22;31871;49.418;8.752;2022-09-17T18:24:44;12.20;99.90
46137;DHT22;31871;49.418;8.752;2022-09-17T18:27:09;12.20;99.90
46137;DHT22;31871;49.418;8.752;2022-09-17T18:29:35;12.10;99.90
46137;DHT22;31871;49.418;8.752;2022-09-17T18:32:00;12.20;99.90
46137;DHT22;31871;49.418;8.752;2022-09-17T18:34:26;12.20;99.90
46137;DHT22;31871;49.418;8.752;2022-09-17T18:36:52;12.20;99.90
46137;DHT22;31871;49.418;8.752;2022-09-17T18:39:18;12.40;99.90
46137;DHT22;31871;49.418;8.752;2022-09-17T18:41:45;12.30;99.90
46137;DHT22;31871;49.418;8.752;2022-09-17T18:44:11;12.30;99.90
46137;DHT22;31871;49.418;8.752;2022-09-17T18:46:37;12.30;99.90
46137;DHT22;31871;49.418;8.752;2022-09-17T18:49:03;12.30;99.90
46137;DHT22;31871;49.418;8.752;2022-09-17T18:51:29;12.10;99.90
46137;DHT22;31871;49.418;8.752;2022-09-17T18:53:55;12.10;99.90
46137;DHT22;31871;49.418;8.752;2022-09-17T18:56:25;12.10;99.90